createdAt,value
2022-12-23T16:43:47.676Z,98331.70
2022-12-23T16:44:25.757Z,98334.08
2022-12-23T16:44:59.373Z,98330.85
2022-12-23T16:45:34.726Z,98333.00
2022-12-23T16:46:13.997Z,98331.73
2022-12-23T16:46:50.123Z,98334.69
2022-12-23T16:47:23.882Z,98333.09
2022-12-23T16:47:58.054Z,98331.64
2022-12-23T16:48:33.863Z,98332.87
2022-12-23T16:49:11.493Z,98330.14
2022-12-23T16:49:46.623Z,98328.84
2022-12-23T16:50:20.468Z,98329.89
2022-12-23T16:53:15.618Z,98331.54
2022-12-23T16:53:50.541Z,98332.09
2022-12-23T16:54:22.931Z,98331.26
2022-12-23T16:54:55.173Z,98331.09
2022-12-23T16:55:28.268Z,98332.02
2022-12-23T16:56:01.553Z,98337.02
2022-12-23T16:56:36.700Z,98334.23
2022-12-23T16:57:10.206Z,98330.54
2022-12-23T16:57:42.751Z,98330.70
2022-12-23T16:58:14.955Z,98325.31
2022-12-23T16:58:47.447Z,98326.42
2022-12-23T16:59:20.687Z,98328.41
2022-12-23T16:59:53.404Z,98323.00
2022-12-23T17:00:26.076Z,98323.66
2022-12-23T17:00:58.595Z,98326.15
2022-12-23T17:01:43.664Z,98328.30
2022-12-23T17:02:21.006Z,98324.10
2022-12-23T17:02:54.340Z,98323.41
2022-12-23T17:03:26.665Z,98327.48
2022-12-23T17:03:59.644Z,98324.89
2022-12-23T17:04:32.012Z,98325.95
2022-12-23T17:05:04.693Z,98325.61
2022-12-23T17:05:36.893Z,98325.32
2022-12-23T17:06:17.401Z,98322.84
2022-12-23T17:06:49.939Z,98323.33
2022-12-23T17:07:24.885Z,98321.64
2022-12-23T17:07:57.280Z,98322.45
2022-12-23T17:08:29.879Z,98321.97
2022-12-23T17:09:04.072Z,98318.68
2022-12-23T17:09:36.045Z,98321.73
2022-12-23T17:10:09.299Z,98326.59
2022-12-23T17:10:44.181Z,98321.90
2022-12-23T17:11:19.757Z,98322.61
2022-12-23T17:11:53.771Z,98326.11
2022-12-23T17:12:26.270Z,98324.51
2022-12-23T17:12:58.599Z,98325.97
2022-12-23T17:13:30.903Z,98323.88
2022-12-23T17:14:09.095Z,98322.97
2022-12-23T17:14:45.310Z,98319.71
2022-12-23T17:15:22.135Z,98320.61
2022-12-23T17:15:54.311Z,98323.40
2022-12-23T17:16:27.167Z,98321.98
2022-12-23T17:17:00.672Z,98319.48
2022-12-23T17:17:34.056Z,98323.24
2022-12-23T17:18:13.317Z,98320.73
2022-12-23T17:18:47.052Z,98320.23
2022-12-23T17:19:27.144Z,98320.57
2022-12-23T17:20:00.899Z,98317.87
2022-12-23T17:20:34.293Z,98319.63
2022-12-23T17:21:25.216Z,98317.18
2022-12-23T17:22:02.609Z,98322.10
2022-12-23T17:22:38.169Z,98317.48
2022-12-23T17:23:32.091Z,98319.77
2022-12-23T17:24:10.551Z,98322.21
2022-12-23T17:24:42.562Z,98324.55
2022-12-23T17:25:22.779Z,98319.32
2022-12-23T17:25:56.988Z,98317.95
2022-12-23T17:26:29.233Z,98319.86
2022-12-23T17:27:01.400Z,98320.67
2022-12-23T17:27:33.739Z,98321.16
2022-12-23T17:28:10.686Z,98318.91
2022-12-23T17:28:44.061Z,98321.30
2022-12-23T17:29:17.207Z,98315.89
2022-12-23T17:29:50.596Z,98319.70
2022-12-23T17:30:24.993Z,98317.42
2022-12-23T17:30:58.624Z,98318.36
2022-12-23T17:31:33.595Z,98314.06
2022-12-23T17:32:06.251Z,98312.09
2022-12-23T17:32:38.818Z,98310.85
2022-12-23T17:33:19.955Z,98313.00
2022-12-23T17:33:55.178Z,98315.33
2022-12-23T17:34:27.615Z,98315.91
2022-12-23T17:34:59.656Z,98316.16
2022-12-23T17:35:31.587Z,98315.33
2022-12-23T17:36:04.137Z,98318.18
2022-12-23T17:36:36.576Z,98318.14
2022-12-23T17:37:20.981Z,98315.66
2022-12-23T17:37:53.411Z,98318.73
2022-12-23T17:38:28.601Z,98321.40
2022-12-23T17:39:01.376Z,98321.56
2022-12-23T17:39:33.514Z,98318.69
2022-12-23T17:40:07.347Z,98324.16
2022-12-23T17:40:40.244Z,98324.90
2022-12-23T17:41:29.098Z,98324.59
2022-12-23T17:42:01.329Z,98321.31
2022-12-23T17:42:34.004Z,98324.77
2022-12-23T17:43:06.374Z,98320.70
2022-12-23T17:43:38.473Z,98323.05
2022-12-23T17:44:14.596Z,98318.59
2022-12-23T17:44:48.670Z,98319.04
2022-12-23T17:45:25.735Z,98321.81
2022-12-23T17:45:58.631Z,98316.48
2022-12-23T17:46:30.852Z,98319.43
2022-12-23T17:47:10.411Z,98316.67
2022-12-23T17:47:42.437Z,98317.90
2022-12-23T17:48:20.625Z,98320.61
2022-12-23T17:48:53.966Z,98321.52
2022-12-23T17:49:28.402Z,98316.74
2022-12-23T17:50:00.644Z,98315.33
2022-12-23T17:50:35.715Z,98317.27
2022-12-23T17:51:13.284Z,98319.08
2022-12-23T17:51:45.878Z,98316.41
2022-12-23T17:52:22.788Z,98319.05
2022-12-23T17:52:55.869Z,98316.88
2022-12-23T17:53:28.846Z,98318.79
2022-12-23T17:54:01.011Z,98320.48
2022-12-23T17:54:33.404Z,98319.58
2022-12-23T17:55:06.465Z,98320.48
2022-12-23T17:55:39.043Z,98318.66
2022-12-23T17:56:14.018Z,98325.36
2022-12-23T17:56:46.645Z,98319.73
2022-12-23T17:57:24.238Z,98322.27
2022-12-23T17:57:56.442Z,98323.31
2022-12-23T17:58:28.804Z,98321.63
2022-12-23T17:59:01.152Z,98320.63
2022-12-23T17:59:33.410Z,98322.19
2022-12-23T18:00:06.907Z,98316.50
2022-12-23T18:00:40.115Z,98324.75
2022-12-23T18:01:32.099Z,98318.73
2022-12-23T18:02:23.249Z,98315.48
2022-12-23T18:02:56.812Z,98312.48
2022-12-23T18:03:30.048Z,98315.70
2022-12-23T18:04:02.803Z,98315.77
2022-12-23T18:04:36.649Z,98314.53
2022-12-23T18:05:23.041Z,98315.34
2022-12-23T18:06:01.643Z,98308.45
2022-12-23T18:06:35.136Z,98311.59
2022-12-23T18:07:11.890Z,98307.80
2022-12-23T18:07:44.874Z,98310.36
2022-12-23T18:08:18.339Z,98309.00
2022-12-23T18:08:51.434Z,98309.48
2022-12-23T18:09:28.662Z,98308.09
2022-12-23T18:10:01.955Z,98311.02
2022-12-23T18:10:39.302Z,98315.17
2022-12-23T18:11:35.394Z,98313.62
2022-12-23T18:12:32.525Z,98314.14
2022-12-23T18:13:09.802Z,98315.70
2022-12-23T18:13:42.834Z,98312.68
2022-12-23T18:14:26.470Z,98312.48
2022-12-23T18:14:58.934Z,98314.41
2022-12-23T18:15:36.160Z,98313.55
2022-12-23T18:16:12.827Z,98315.86
2022-12-23T18:16:46.273Z,98315.38
2022-12-23T18:17:18.832Z,98316.29
2022-12-23T18:17:52.224Z,98315.29
2022-12-23T18:18:32.164Z,98312.41
2022-12-23T18:19:17.624Z,98314.86
2022-12-23T18:19:49.648Z,98316.45
2022-12-23T18:20:23.405Z,98315.44
2022-12-23T18:20:56.981Z,98312.97
2022-12-23T18:21:29.382Z,98315.25
2022-12-23T18:22:01.734Z,98311.64
2022-12-23T18:22:34.119Z,98313.81
2022-12-23T18:23:06.190Z,98313.72
2022-12-23T18:23:38.858Z,98313.63
2022-12-23T18:24:11.228Z,98314.01
2022-12-23T18:24:45.027Z,98310.20
2022-12-23T18:25:21.276Z,98309.61
2022-12-23T18:25:54.502Z,98305.48
2022-12-23T18:26:26.703Z,98306.10
2022-12-23T18:26:58.912Z,98308.12
2022-12-23T18:27:38.887Z,98311.24
2022-12-23T18:28:12.141Z,98311.20
2022-12-23T18:28:44.471Z,98310.89
2022-12-23T18:29:16.891Z,98312.45
2022-12-23T18:29:49.973Z,98309.45
2022-12-23T18:30:22.263Z,98314.11
2022-12-23T18:30:58.618Z,98312.77
2022-12-23T18:31:31.364Z,98313.52
2022-12-23T18:32:04.051Z,98317.27
2022-12-23T18:32:36.495Z,98317.02
2022-12-23T18:33:12.903Z,98315.77
2022-12-23T18:33:47.325Z,98318.27
2022-12-23T18:34:21.102Z,98319.66
2022-12-23T18:34:55.066Z,98326.67
2022-12-23T18:35:42.599Z,98323.14
2022-12-23T18:36:23.082Z,98324.14
2022-12-23T18:36:55.634Z,98329.48
2022-12-23T18:37:28.149Z,98329.95
2022-12-23T18:38:01.357Z,98328.38
2022-12-23T18:38:33.585Z,98330.49
2022-12-23T18:39:05.833Z,98327.17
2022-12-23T18:39:37.948Z,98329.71
2022-12-23T18:40:10.433Z,98326.34
2022-12-23T18:40:45.999Z,98324.30
2022-12-23T18:41:19.528Z,98325.34
2022-12-23T18:41:52.804Z,98326.58
2022-12-23T18:42:25.182Z,98327.27
2022-12-23T18:42:57.481Z,98327.15
2022-12-23T18:43:30.298Z,98324.83
2022-12-23T18:44:02.612Z,98328.77
2022-12-23T18:44:34.807Z,98326.64
2022-12-23T18:45:35.184Z,98331.38
2022-12-23T18:46:07.796Z,98328.30
2022-12-23T18:46:40.339Z,98328.77
2022-12-23T18:47:12.704Z,98331.63
2022-12-23T18:47:45.114Z,98329.70
2022-12-23T18:48:17.394Z,98326.41
2022-12-23T18:48:51.106Z,98334.39
2022-12-23T18:49:23.383Z,98336.26
2022-12-23T18:49:55.647Z,98336.18
2022-12-23T18:50:28.724Z,98329.73
2022-12-23T18:51:01.313Z,98331.79
2022-12-23T18:51:33.680Z,98333.15
2022-12-23T18:52:08.360Z,98334.28
2022-12-23T18:52:40.431Z,98330.04
2022-12-23T18:53:24.575Z,98336.64
2022-12-23T18:53:57.275Z,98333.57
2022-12-23T18:54:29.657Z,98335.46
2022-12-23T18:55:02.366Z,98339.27
2022-12-23T18:55:35.712Z,98336.92
2022-12-23T18:56:13.777Z,98336.60
2022-12-23T18:56:47.443Z,98333.94
2022-12-23T18:57:19.557Z,98336.53
2022-12-23T18:57:51.808Z,98334.91
2022-12-23T18:58:24.285Z,98335.77
2022-12-23T18:58:56.715Z,98336.70
2022-12-23T18:59:31.276Z,98334.92
2022-12-23T19:00:12.320Z,98334.96
2022-12-23T19:00:45.081Z,98338.98
2022-12-23T19:01:18.450Z,98338.71
2022-12-23T19:01:51.109Z,98340.29
2022-12-23T19:02:23.386Z,98337.45
2022-12-23T19:02:57.293Z,98340.70
2022-12-23T19:03:31.357Z,98342.79
2022-12-23T19:04:03.634Z,98343.29
2022-12-23T19:04:35.853Z,98341.20
2022-12-23T19:05:15.343Z,98343.50
2022-12-23T19:05:49.607Z,98343.71
2022-12-23T19:06:22.114Z,98343.86
2022-12-23T19:06:56.655Z,98337.61
2022-12-23T19:07:29.261Z,98339.74
2022-12-23T19:08:01.678Z,98340.05
2022-12-23T19:08:35.489Z,98339.83
2022-12-23T19:09:07.700Z,98342.07
2022-12-23T19:09:39.808Z,98344.88
2022-12-23T19:10:17.471Z,98337.26
2022-12-23T19:10:50.806Z,98341.74
2022-12-23T19:11:22.833Z,98342.63
2022-12-23T19:11:54.897Z,98345.91
2022-12-23T19:12:26.821Z,98345.52
2022-12-23T19:13:00.148Z,98342.55
2022-12-23T19:13:32.807Z,98344.11
2022-12-23T19:14:04.976Z,98340.27
2022-12-23T19:14:39.071Z,98343.02
2022-12-23T19:15:12.070Z,98340.48
2022-12-23T19:15:45.228Z,98344.12
2022-12-23T19:16:20.723Z,98342.36
2022-12-23T19:16:53.206Z,98340.21
2022-12-23T19:17:25.370Z,98342.17
2022-12-23T19:17:57.449Z,98342.78
2022-12-23T19:18:29.905Z,98343.83
2022-12-23T19:19:02.210Z,98349.79
2022-12-23T19:19:35.077Z,98353.23
2022-12-23T19:20:10.279Z,98351.83
2022-12-23T19:20:43.618Z,98353.05
2022-12-23T19:21:17.837Z,98351.70
2022-12-23T19:21:50.157Z,98352.55
2022-12-23T19:22:24.112Z,98352.42
2022-12-23T19:22:56.296Z,98356.66
2022-12-23T19:23:28.473Z,98355.81
2022-12-23T19:24:02.031Z,98355.13
2022-12-23T19:24:34.454Z,98359.66
2022-12-23T19:25:08.001Z,98359.05
2022-12-23T19:25:42.127Z,98359.10
2022-12-23T19:26:15.210Z,98361.55
2022-12-23T19:26:47.814Z,98358.06
2022-12-23T19:27:20.893Z,98360.31
2022-12-23T19:27:53.135Z,98358.59
2022-12-23T19:28:25.676Z,98355.33
2022-12-23T19:28:58.296Z,98360.15
2022-12-23T19:29:30.481Z,98361.48
2022-12-23T19:30:03.520Z,98365.10
2022-12-23T19:30:36.278Z,98360.96
2022-12-23T19:31:10.802Z,98365.39
2022-12-23T19:31:43.171Z,98363.96
2022-12-23T19:32:15.233Z,98367.60
2022-12-23T19:32:51.577Z,98365.19
2022-12-23T19:33:24.687Z,98366.86
2022-12-23T19:33:57.188Z,98364.09
2022-12-23T19:34:29.365Z,98365.16
2022-12-23T19:35:02.117Z,98367.38
2022-12-23T19:35:34.406Z,98367.21
2022-12-23T19:36:11.321Z,98365.02
2022-12-23T19:36:44.041Z,98365.88
2022-12-23T19:37:16.752Z,98371.55
2022-12-23T19:37:49.086Z,98371.25
2022-12-23T19:38:21.282Z,98373.54
2022-12-23T19:38:55.599Z,98371.94
2022-12-23T19:39:28.060Z,98377.02
2022-12-23T19:40:00.509Z,98372.17
2022-12-23T19:40:33.013Z,98378.02
2022-12-23T19:41:06.917Z,98373.98
2022-12-23T19:41:39.061Z,98377.25
2022-12-23T19:42:11.465Z,98378.45
2022-12-23T19:42:43.603Z,98377.21
2022-12-23T19:43:15.913Z,98375.77
2022-12-23T19:43:48.204Z,98380.08
2022-12-23T19:44:20.663Z,98380.49
2022-12-23T19:44:52.732Z,98377.05
2022-12-23T19:45:25.055Z,98381.32
2022-12-23T19:46:02.954Z,98382.17
2022-12-23T19:46:35.804Z,98382.45
2022-12-23T19:47:08.211Z,98380.41
2022-12-23T19:47:40.215Z,98385.33
2022-12-23T19:48:12.211Z,98382.77
2022-12-23T19:48:52.420Z,98381.77
2022-12-23T19:49:24.578Z,98385.05
2022-12-23T19:49:56.596Z,98383.95
2022-12-23T19:50:28.807Z,98386.30
2022-12-23T19:51:04.072Z,98386.34
2022-12-23T19:51:36.840Z,98389.30
2022-12-23T19:52:09.803Z,98389.10
2022-12-23T19:52:41.954Z,98387.47
2022-12-23T19:53:15.302Z,98386.40
2022-12-23T19:53:50.489Z,98387.38
2022-12-23T19:54:22.632Z,98386.20
2022-12-23T19:54:56.057Z,98384.41
2022-12-23T19:55:28.216Z,98386.14
2022-12-23T19:56:10.203Z,98385.91
2022-12-23T19:56:42.641Z,98386.92
2022-12-23T19:57:14.804Z,98385.73
2022-12-23T19:57:46.875Z,98387.38
2022-12-23T19:58:18.933Z,98385.58
2022-12-23T19:58:51.133Z,98386.41
2022-12-23T19:59:23.727Z,98388.10
2022-12-23T19:59:56.042Z,98387.79
2022-12-23T20:00:28.119Z,98387.17
2022-12-23T20:01:07.444Z,98386.33
2022-12-23T20:01:39.741Z,98389.59
2022-12-23T20:02:15.943Z,98386.04
2022-12-23T20:02:50.188Z,98383.70
2022-12-23T20:03:24.574Z,98384.30
2022-12-23T20:03:57.239Z,98383.34
2022-12-23T20:04:29.617Z,98386.91
2022-12-23T20:05:02.193Z,98390.37
2022-12-23T20:05:34.643Z,98387.14
2022-12-23T20:06:10.223Z,98385.94
2022-12-23T20:06:42.296Z,98386.95
2022-12-23T20:07:14.422Z,98388.48
2022-12-23T20:07:46.679Z,98385.09
2022-12-23T20:08:18.841Z,98387.53
2022-12-23T20:08:54.924Z,98387.80
2022-12-23T20:09:30.340Z,98386.83
2022-12-23T20:10:04.434Z,98385.77
2022-12-23T20:10:36.706Z,98386.79
2022-12-23T20:11:25.910Z,98385.03
2022-12-23T20:11:58.073Z,98385.16
2022-12-23T20:12:30.433Z,98389.65
2022-12-23T20:13:02.611Z,98384.70
2022-12-23T20:13:35.804Z,98386.16
2022-12-23T20:14:08.895Z,98385.33
2022-12-23T20:14:41.031Z,98386.52
2022-12-23T20:15:13.138Z,98387.40
2022-12-23T20:15:45.345Z,98383.08
2022-12-23T20:16:17.645Z,98384.47
2022-12-23T20:16:49.993Z,98380.42
2022-12-23T20:17:22.300Z,98382.72
2022-12-23T20:17:54.484Z,98384.94
2022-12-23T20:18:27.175Z,98380.36
2022-12-23T20:18:59.309Z,98384.70
2022-12-23T20:19:31.518Z,98383.90
2022-12-23T20:20:06.619Z,98384.83
2022-12-23T20:20:38.880Z,98385.63
2022-12-23T20:21:11.150Z,98385.79
2022-12-23T20:21:46.885Z,98383.25
2022-12-23T20:22:18.958Z,98385.62
2022-12-23T20:22:50.990Z,98383.36
2022-12-23T20:23:23.143Z,98382.19
2022-12-23T20:23:55.432Z,98383.66
2022-12-23T20:24:27.736Z,98382.02
2022-12-23T20:24:59.762Z,98383.04
2022-12-23T20:25:31.919Z,98384.58
2022-12-23T20:26:05.187Z,98380.95
2022-12-23T20:26:38.135Z,98383.91
2022-12-23T20:27:12.572Z,98380.66
2022-12-23T20:27:46.033Z,98378.52
2022-12-23T20:28:18.435Z,98384.27
2022-12-23T20:28:51.429Z,98380.98
2022-12-23T20:29:23.936Z,98382.29
2022-12-23T20:29:56.513Z,98376.53
2022-12-23T20:30:29.030Z,98378.52
2022-12-23T20:31:07.738Z,98379.52
2022-12-23T20:31:40.952Z,98375.15
2022-12-23T20:32:14.007Z,98379.06
2022-12-23T20:32:46.757Z,98381.05
2022-12-23T20:33:19.562Z,98382.16
2022-12-23T20:33:53.613Z,98378.42
2022-12-23T20:34:25.715Z,98382.33
2022-12-23T20:34:57.787Z,98379.84
2022-12-23T20:35:30.627Z,98381.81
2022-12-23T20:36:07.583Z,98379.77
2022-12-23T20:36:39.916Z,98379.30
2022-12-23T20:37:12.250Z,98380.44
2022-12-23T20:37:44.614Z,98380.02
2022-12-23T20:38:16.819Z,98381.87
2022-12-23T20:38:48.955Z,98381.91
2022-12-23T20:39:21.159Z,98381.22
2022-12-23T20:39:53.531Z,98380.89
2022-12-23T20:40:25.756Z,98382.36
2022-12-23T20:40:58.285Z,98382.33
2022-12-23T20:41:32.203Z,98383.03
2022-12-23T20:42:04.527Z,98384.44
2022-12-23T20:42:36.816Z,98381.77
2022-12-23T20:43:14.943Z,98385.97
2022-12-23T20:43:57.039Z,98386.10
2022-12-23T20:44:41.278Z,98386.13
2022-12-23T20:45:13.867Z,98388.96
2022-12-23T20:45:46.339Z,98388.80
2022-12-23T20:46:19.653Z,98387.11
2022-12-23T20:46:52.158Z,98387.95
2022-12-23T20:47:25.622Z,98384.66
2022-12-23T20:47:58.081Z,98389.70
2022-12-23T20:48:34.003Z,98386.91
2022-12-23T20:49:07.067Z,98385.42
2022-12-23T20:49:39.410Z,98385.54
2022-12-23T20:50:11.631Z,98385.60
2022-12-23T20:50:44.519Z,98382.84
2022-12-23T20:51:23.915Z,98386.00
2022-12-23T20:51:59.051Z,98386.70
2022-12-23T20:52:34.933Z,98386.09
2022-12-23T20:53:08.615Z,98386.70
2022-12-23T20:53:42.150Z,98383.85
2022-12-23T20:54:14.536Z,98386.02
2022-12-23T20:54:47.257Z,98383.41
2022-12-23T20:55:20.272Z,98385.95
2022-12-23T20:55:52.837Z,98386.81
2022-12-23T20:56:27.717Z,98387.98
2022-12-23T20:57:01.246Z,98386.25
2022-12-23T20:57:35.388Z,98388.34
2022-12-23T20:58:26.862Z,98389.57
2022-12-23T20:59:00.048Z,98390.09
2022-12-23T20:59:32.986Z,98387.77
2022-12-23T21:00:06.688Z,98390.85
2022-12-23T21:00:39.133Z,98390.21
2022-12-23T21:01:13.291Z,98389.33
2022-12-23T21:01:46.416Z,98390.80
2022-12-23T21:02:19.163Z,98390.85
2022-12-23T21:02:51.555Z,98391.56
2022-12-23T21:03:23.676Z,98395.11
2022-12-23T21:03:57.787Z,98394.25
2022-12-23T21:04:29.778Z,98392.13
2022-12-23T21:05:02.531Z,98392.58
2022-12-23T21:05:34.985Z,98393.74
2022-12-23T21:06:09.329Z,98392.53
2022-12-23T21:06:42.721Z,98394.41
2022-12-23T21:07:18.099Z,98395.04
2022-12-23T21:07:50.655Z,98391.39
2022-12-23T21:08:23.240Z,98390.71
2022-12-23T21:08:58.941Z,98392.02
2022-12-23T21:09:32.358Z,98391.74
2022-12-23T21:10:05.889Z,98393.21
2022-12-23T21:10:41.691Z,98393.57
2022-12-23T21:11:15.425Z,98391.95
2022-12-23T21:11:47.573Z,98393.80
2022-12-23T21:12:19.936Z,98392.20
2022-12-23T21:12:52.275Z,98393.16
2022-12-23T21:13:25.065Z,98390.09
2022-12-23T21:14:05.923Z,98389.96
2022-12-23T21:14:39.098Z,98392.14
2022-12-23T21:15:11.390Z,98393.34
2022-12-23T21:15:43.603Z,98396.58
2022-12-23T21:16:16.888Z,98394.58
2022-12-23T21:16:49.327Z,98394.06
2022-12-23T21:17:23.457Z,98395.33
2022-12-23T21:17:56.025Z,98394.13
2022-12-23T21:18:30.011Z,98396.83
2022-12-23T21:19:02.624Z,98393.41
2022-12-23T21:19:34.774Z,98392.84
2022-12-23T21:20:08.775Z,98394.33
2022-12-23T21:20:41.282Z,98396.52
2022-12-23T21:21:13.476Z,98399.54
2022-12-23T21:21:47.000Z,98397.30
2022-12-23T21:22:19.355Z,98398.50
2022-12-23T21:22:51.924Z,98394.61
2022-12-23T21:23:24.034Z,98398.08
2022-12-23T21:23:58.972Z,98399.28
2022-12-23T21:24:31.233Z,98398.17
2022-12-23T21:25:03.665Z,98392.65
2022-12-23T21:25:35.838Z,98391.05
2022-12-23T21:26:15.339Z,98392.92
2022-12-23T21:26:55.447Z,98393.98
2022-12-23T21:27:28.783Z,98392.73
2022-12-23T21:28:01.049Z,98391.36
2022-12-23T21:28:34.631Z,98389.23
2022-12-23T21:29:08.325Z,98389.22
2022-12-23T21:29:40.711Z,98391.69
2022-12-23T21:30:13.184Z,98390.91
2022-12-23T21:30:45.426Z,98388.64
2022-12-23T21:31:20.983Z,98388.99
2022-12-23T21:31:53.291Z,98393.36
2022-12-23T21:32:25.426Z,98390.71
2022-12-23T21:32:59.951Z,98390.52
2022-12-23T21:33:38.532Z,98390.52
2022-12-23T21:34:14.071Z,98390.23
2022-12-23T21:34:46.406Z,98390.46
2022-12-23T21:35:18.753Z,98387.11
2022-12-23T21:35:51.154Z,98389.42
2022-12-23T21:36:26.037Z,98391.43
2022-12-23T21:36:58.691Z,98389.15
2022-12-23T21:37:31.980Z,98389.41
2022-12-23T21:38:04.216Z,98389.73
2022-12-23T21:38:39.369Z,98389.55
2022-12-23T21:39:16.193Z,98387.27
2022-12-23T21:39:48.128Z,98383.59
2022-12-23T21:40:20.338Z,98388.09
2022-12-23T21:40:58.955Z,98385.71
2022-12-23T21:41:36.334Z,98386.81
2022-12-23T21:42:08.529Z,98390.73
2022-12-23T21:42:40.623Z,98390.39
2022-12-23T21:43:13.065Z,98388.70
2022-12-23T21:43:45.595Z,98390.95
2022-12-23T21:44:17.991Z,98393.00
2022-12-23T21:44:50.103Z,98393.20
2022-12-23T21:45:22.219Z,98393.61
2022-12-23T21:46:11.091Z,98389.06
2022-12-23T21:46:43.336Z,98390.68
2022-12-23T21:47:15.691Z,98392.08
2022-12-23T21:47:47.817Z,98385.90
2022-12-23T21:48:19.973Z,98387.79
2022-12-23T21:48:52.528Z,98391.40
2022-12-23T21:49:24.653Z,98390.95
2022-12-23T21:49:57.034Z,98388.05
2022-12-23T21:50:29.602Z,98386.98
2022-12-23T21:51:26.616Z,98389.46
2022-12-23T21:51:59.004Z,98390.74
2022-12-23T21:52:31.722Z,98388.66
2022-12-23T21:53:04.068Z,98390.39
2022-12-23T21:53:37.151Z,98387.63
2022-12-23T21:54:11.397Z,98385.70
2022-12-23T21:54:43.830Z,98381.51
2022-12-23T21:55:17.969Z,98381.45
2022-12-23T21:55:50.291Z,98378.52
2022-12-23T21:56:25.812Z,98376.69
2022-12-23T21:56:58.255Z,98378.55
2022-12-23T21:57:30.608Z,98377.54
2022-12-23T21:58:02.824Z,98376.40
2022-12-23T21:58:36.527Z,98371.90
2022-12-23T21:59:13.111Z,98372.13
2022-12-23T21:59:45.419Z,98372.09
2022-12-23T22:00:18.113Z,98375.80
2022-12-23T22:00:50.629Z,98370.44
2022-12-23T22:01:23.578Z,98370.31
2022-12-23T22:01:57.027Z,98368.91
2022-12-23T22:02:29.019Z,98367.05
2022-12-23T22:03:01.409Z,98368.52
2022-12-23T22:03:33.645Z,98369.20
2022-12-23T22:04:06.748Z,98368.52
2022-12-23T22:04:38.864Z,98371.05
2022-12-23T22:05:10.877Z,98373.95
2022-12-23T22:05:42.934Z,98375.52
2022-12-23T22:06:24.440Z,98374.11
2022-12-23T22:06:57.157Z,98378.58
2022-12-23T22:07:29.258Z,98375.35
2022-12-23T22:08:01.468Z,98376.91
2022-12-23T22:08:34.341Z,98373.91
2022-12-23T22:09:07.877Z,98375.38
2022-12-23T22:09:40.113Z,98372.33
2022-12-23T22:10:12.254Z,98371.86
2022-12-23T22:10:45.420Z,98369.00
2022-12-23T22:11:21.601Z,98367.14
2022-12-23T22:11:56.360Z,98364.38
2022-12-23T22:12:28.498Z,98361.52
2022-12-23T22:13:00.663Z,98364.23
2022-12-23T22:13:33.352Z,98360.77
2022-12-23T22:14:07.816Z,98360.76
2022-12-23T22:14:40.050Z,98365.36
2022-12-23T22:15:12.513Z,98361.23
2022-12-23T22:15:44.861Z,98363.27
2022-12-23T22:16:20.242Z,98365.37
2022-12-23T22:16:52.652Z,98364.23
2022-12-23T22:17:24.886Z,98365.61
2022-12-23T22:17:57.006Z,98366.10
2022-12-23T22:18:30.021Z,98364.38
2022-12-23T22:19:04.324Z,98364.92
2022-12-23T22:19:36.949Z,98362.32
2022-12-23T22:20:10.913Z,98358.09
2022-12-23T22:20:46.396Z,98360.47
2022-12-23T22:21:21.935Z,98361.54
2022-12-23T22:21:54.972Z,98357.44
2022-12-23T22:22:27.324Z,98359.88
2022-12-23T22:22:59.594Z,98363.40
2022-12-23T22:23:32.043Z,98362.26
2022-12-23T22:24:06.995Z,98363.52
2022-12-23T22:24:39.248Z,98362.36
2022-12-23T22:25:11.441Z,98364.20
2022-12-23T22:25:52.328Z,98361.64
2022-12-23T22:26:26.401Z,98362.23
2022-12-23T22:26:58.733Z,98359.55
2022-12-23T22:27:31.137Z,98361.29
2022-12-23T22:28:04.052Z,98364.23
2022-12-23T22:28:39.736Z,98363.63
2022-12-23T22:29:12.129Z,98363.81
2022-12-23T22:29:44.360Z,98359.09
2022-12-23T22:30:16.912Z,98360.88
2022-12-23T22:30:49.107Z,98364.10
2022-12-23T22:31:27.415Z,98359.22
2022-12-23T22:31:59.911Z,98358.35
2022-12-23T22:32:34.703Z,98354.84
2022-12-23T22:33:10.099Z,98352.90
2022-12-23T22:33:42.128Z,98351.99
2022-12-23T22:34:17.727Z,98349.52
2022-12-23T22:34:50.187Z,98348.71
2022-12-23T22:35:23.275Z,98346.23
2022-12-23T22:35:57.214Z,98346.85
2022-12-23T22:36:30.141Z,98347.56
2022-12-23T22:37:02.722Z,98350.08
2022-12-23T22:37:34.911Z,98349.33
2022-12-23T22:38:07.227Z,98349.09
2022-12-23T22:38:40.556Z,98351.69
2022-12-23T22:39:19.758Z,98351.98
2022-12-23T22:39:52.960Z,98350.93
2022-12-23T22:40:25.019Z,98352.02
2022-12-23T22:40:57.553Z,98352.21
2022-12-23T22:41:30.954Z,98349.63
2022-12-23T22:42:03.314Z,98349.52
2022-12-23T22:42:36.192Z,98350.50
2022-12-23T22:43:08.509Z,98354.02
2022-12-23T22:43:40.656Z,98350.38
2022-12-23T22:44:13.321Z,98351.28
2022-12-23T22:44:45.619Z,98352.03
2022-12-23T22:45:18.190Z,98351.17
2022-12-23T22:45:57.781Z,98350.33
2022-12-23T22:46:30.742Z,98350.92
2022-12-23T22:47:03.024Z,98351.45
2022-12-23T22:47:35.222Z,98351.28
2022-12-23T22:48:07.488Z,98349.00
2022-12-23T22:48:39.421Z,98350.02
2022-12-23T22:49:15.590Z,98344.45
2022-12-23T22:49:48.158Z,98347.90
2022-12-23T22:50:20.939Z,98344.77
2022-12-23T22:51:01.737Z,98346.66
2022-12-23T22:51:33.893Z,98347.34
2022-12-23T22:52:05.975Z,98346.44
2022-12-23T22:52:38.678Z,98343.25
2022-12-23T22:53:13.401Z,98345.75
2022-12-23T22:53:45.978Z,98343.30
2022-12-23T22:54:18.089Z,98341.39
2022-12-23T22:54:50.167Z,98343.31
2022-12-23T22:55:22.344Z,98343.13
2022-12-23T22:56:01.410Z,98346.45
2022-12-23T22:56:33.960Z,98341.80
2022-12-23T22:57:06.063Z,98343.01
2022-12-23T22:57:38.215Z,98343.67
2022-12-23T22:58:10.474Z,98339.52
2022-12-23T22:58:43.393Z,98339.68
2022-12-23T22:59:24.329Z,98339.02
2022-12-23T22:59:57.395Z,98337.98
2022-12-23T23:00:29.938Z,98338.98
2022-12-23T23:01:03.207Z,98340.04
2022-12-23T23:01:36.632Z,98341.34
2022-12-23T23:02:09.002Z,98338.89
2022-12-23T23:02:41.177Z,98340.98
2022-12-23T23:03:13.378Z,98343.94
2022-12-23T23:03:45.388Z,98343.27
2022-12-23T23:04:17.839Z,98346.35
2022-12-23T23:04:50.242Z,98348.70
2022-12-23T23:05:22.472Z,98345.27
2022-12-23T23:05:59.958Z,98344.78
2022-12-23T23:06:37.087Z,98345.56
2022-12-23T23:07:09.294Z,98348.16
2022-12-23T23:07:41.541Z,98344.75
2022-12-23T23:08:14.305Z,98345.10
2022-12-23T23:08:46.430Z,98341.88
2022-12-23T23:09:20.558Z,98343.66
2022-12-23T23:09:52.785Z,98339.66
2022-12-23T23:10:25.245Z,98340.76
2022-12-23T23:10:59.900Z,98338.94
2022-12-23T23:11:32.376Z,98339.66
2022-12-23T23:12:04.683Z,98337.23
2022-12-23T23:12:36.632Z,98335.22
2022-12-23T23:13:08.756Z,98331.70
2022-12-23T23:13:40.778Z,98331.42
2022-12-23T23:14:13.499Z,98332.83
2022-12-23T23:14:54.934Z,98331.59
2022-12-23T23:15:27.100Z,98330.91
2022-12-23T23:16:00.298Z,98337.22
2022-12-23T23:16:32.999Z,98332.34
2022-12-23T23:17:05.355Z,98334.45
2022-12-23T23:17:37.445Z,98335.58
2022-12-23T23:18:09.567Z,98336.13
2022-12-23T23:18:41.632Z,98334.22
2022-12-23T23:19:14.813Z,98332.16
2022-12-23T23:19:47.296Z,98331.64
2022-12-23T23:20:20.103Z,98331.58
2022-12-23T23:20:52.610Z,98336.73
2022-12-23T23:21:24.675Z,98332.10
2022-12-23T23:21:56.908Z,98332.48
2022-12-23T23:22:28.975Z,98331.38
2022-12-23T23:23:01.056Z,98331.67
2022-12-23T23:23:33.385Z,98331.31
2022-12-23T23:24:06.001Z,98332.88
2022-12-23T23:24:38.017Z,98333.69